sensor_id;sensor_type;location;lat;lon;timestamp;P1;durP1;ratioP1;P2;durP2;ratioP2
62788;SDS011;66401;42.016;21.454;2023-02-23T00:01:20;42.33;;;24.10;;
62788;SDS011;66401;42.016;21.454;2023-02-23T00:03:52;41.17;;;24.23;;
62788;SDS011;66401;42.016;21.454;2023-02-23T00:06:20;42.20;;;24.60;;
62788;SDS011;66401;42.016;21.454;2023-02-23T00:08:46;42.43;;;24.33;;
62788;SDS011;66401;42.016;21.454;2023-02-23T00:11:16;42.87;;;23.67;;
62788;SDS011;66401;42.016;21.454;2023-02-23T00:13:42;38.70;;;21.77;;
62788;SDS011;66401;42.016;21.454;2023-02-23T00:16:23;38.77;;;22.90;;
62788;SDS011;66401;42.016;21.454;2023-02-23T00:18:51;36.63;;;19.53;;
62788;SDS011;66401;42.016;21.454;2023-02-23T00:21:36;31.63;;;19.57;;
62788;SDS011;66401;42.016;21.454;2023-02-23T00:24:06;33.80;;;19.70;;
62788;SDS011;66401;42.016;21.454;2023-02-23T00:26:34;32.80;;;19.10;;
62788;SDS011;66401;42.016;21.454;2023-02-23T00:29:02;33.03;;;20.57;;
62788;SDS011;66401;42.016;21.454;2023-02-23T00:31:29;38.77;;;21.30;;
62788;SDS011;66401;42.016;21.454;2023-02-23T00:33:56;37.97;;;22.27;;
62788;SDS011;66401;42.016;21.454;2023-02-23T00:36:25;34.47;;;21.87;;
62788;SDS011;66401;42.016;21.454;2023-02-23T00:38:52;37.90;;;23.10;;
62788;SDS011;66401;42.016;21.454;2023-02-23T00:41:19;42.37;;;23.37;;
62788;SDS011;66401;42.016;21.454;2023-02-23T00:43:55;36.13;;;21.77;;
62788;SDS011;66401;42.016;21.454;2023-02-23T00:46:22;35.07;;;23.20;;
62788;SDS011;66401;42.016;21.454;2023-02-23T00:48:51;36.73;;;22.10;;
62788;SDS011;66401;42.016;21.454;2023-02-23T00:51:19;37.73;;;21.93;;
62788;SDS011;66401;42.016;21.454;2023-02-23T00:53:46;35.73;;;22.50;;
62788;SDS011;66401;42.016;21.454;2023-02-23T00:56:12;40.10;;;23.60;;
62788;SDS011;66401;42.016;21.454;2023-02-23T00:58:40;46.77;;;23.70;;
62788;SDS011;66401;42.016;21.454;2023-02-23T01:01:07;42.63;;;24.60;;
62788;SDS011;66401;42.016;21.454;2023-02-23T01:03:34;48.97;;;26.63;;
62788;SDS011;66401;42.016;21.454;2023-02-23T01:06:02;45.17;;;26.70;;
62788;SDS011;66401;42.016;21.454;2023-02-23T01:08:29;46.43;;;27.00;;
62788;SDS011;66401;42.016;21.454;2023-02-23T01:10:56;39.73;;;25.00;;
62788;SDS011;66401;42.016;21.454;2023-02-23T01:13:21;41.90;;;24.70;;
62788;SDS011;66401;42.016;21.454;2023-02-23T01:15:48;45.50;;;24.80;;
62788;SDS011;66401;42.016;21.454;2023-02-23T01:18:14;43.40;;;24.70;;
62788;SDS011;66401;42.016;21.454;2023-02-23T01:20:41;43.37;;;24.87;;
62788;SDS011;66401;42.016;21.454;2023-02-23T01:23:08;39.47;;;22.53;;
62788;SDS011;66401;42.016;21.454;2023-02-23T01:25:36;32.33;;;19.20;;
62788;SDS011;66401;42.016;21.454;2023-02-23T01:28:02;34.80;;;17.97;;
62788;SDS011;66401;42.016;21.454;2023-02-23T01:30:28;26.97;;;16.77;;
62788;SDS011;66401;42.016;21.454;2023-02-23T01:32:53;29.37;;;15.37;;
62788;SDS011;66401;42.016;21.454;2023-02-23T01:35:19;29.80;;;18.30;;
62788;SDS011;66401;42.016;21.454;2023-02-23T01:37:44;37.37;;;21.33;;
62788;SDS011;66401;42.016;21.454;2023-02-23T01:42:42;41.37;;;23.50;;
62788;SDS011;66401;42.016;21.454;2023-02-23T01:45:29;39.13;;;22.77;;
62788;SDS011;66401;42.016;21.454;2023-02-23T01:48:00;42.63;;;22.80;;
62788;SDS011;66401;42.016;21.454;2023-02-23T01:50:31;34.33;;;21.67;;
62788;SDS011;66401;42.016;21.454;2023-02-23T01:53:03;41.60;;;22.33;;
62788;SDS011;66401;42.016;21.454;2023-02-23T01:55:30;33.43;;;18.87;;
62788;SDS011;66401;42.016;21.454;2023-02-23T01:58:00;34.43;;;19.47;;
62788;SDS011;66401;42.016;21.454;2023-02-23T02:00:30;29.63;;;16.40;;
62788;SDS011;66401;42.016;21.454;2023-02-23T02:03:00;28.33;;;15.73;;
62788;SDS011;66401;42.016;21.454;2023-02-23T02:05:33;24.17;;;14.43;;
62788;SDS011;66401;42.016;21.454;2023-02-23T02:08:01;22.97;;;13.73;;
62788;SDS011;66401;42.016;21.454;2023-02-23T02:10:30;25.20;;;14.53;;
62788;SDS011;66401;42.016;21.454;2023-02-23T02:13:05;23.80;;;15.13;;
62788;SDS011;66401;42.016;21.454;2023-02-23T02:15:34;30.00;;;17.00;;
62788;SDS011;66401;42.016;21.454;2023-02-23T02:18:55;26.00;;;17.53;;
62788;SDS011;66401;42.016;21.454;2023-02-23T02:27:12;32.37;;;18.37;;
62788;SDS011;66401;42.016;21.454;2023-02-23T02:46:36;43.17;;;22.37;;
62788;SDS011;66401;42.016;21.454;2023-02-23T02:49:21;35.27;;;20.73;;
62788;SDS011;66401;42.016;21.454;2023-02-23T02:54:38;38.60;;;21.77;;
62788;SDS011;66401;42.016;21.454;2023-02-23T02:57:08;37.80;;;20.60;;
62788;SDS011;66401;42.016;21.454;2023-02-23T02:59:45;35.63;;;21.87;;
62788;SDS011;66401;42.016;21.454;2023-02-23T03:02:31;38.93;;;20.43;;
62788;SDS011;66401;42.016;21.454;2023-02-23T03:05:18;31.70;;;19.93;;
62788;SDS011;66401;42.016;21.454;2023-02-23T03:11:00;41.10;;;21.27;;
62788;SDS011;66401;42.016;21.454;2023-02-23T03:19:56;39.83;;;21.27;;
62788;SDS011;66401;42.016;21.454;2023-02-23T03:25:47;42.27;;;22.73;;
62788;SDS011;66401;42.016;21.454;2023-02-23T03:28:53;40.40;;;21.87;;
62788;SDS011;66401;42.016;21.454;2023-02-23T03:32:28;40.07;;;19.73;;
62788;SDS011;66401;42.016;21.454;2023-02-23T03:35:06;35.57;;;18.47;;
62788;SDS011;66401;42.016;21.454;2023-02-23T03:38:03;38.00;;;20.50;;
62788;SDS011;66401;42.016;21.454;2023-02-23T03:40:53;34.20;;;18.87;;
62788;SDS011;66401;42.016;21.454;2023-02-23T03:43:44;40.77;;;23.83;;
62788;SDS011;66401;42.016;21.454;2023-02-23T03:46:32;57.50;;;31.87;;
62788;SDS011;66401;42.016;21.454;2023-02-23T03:49:20;54.57;;;28.43;;
62788;SDS011;66401;42.016;21.454;2023-02-23T03:52:09;57.97;;;29.73;;
62788;SDS011;66401;42.016;21.454;2023-02-23T03:55:09;57.23;;;29.23;;
62788;SDS011;66401;42.016;21.454;2023-02-23T03:57:57;47.10;;;25.77;;
62788;SDS011;66401;42.016;21.454;2023-02-23T04:00:45;39.73;;;23.03;;
62788;SDS011;66401;42.016;21.454;2023-02-23T04:03:32;53.90;;;24.90;;
62788;SDS011;66401;42.016;21.454;2023-02-23T04:06:20;45.50;;;23.73;;
62788;SDS011;66401;42.016;21.454;2023-02-23T04:09:08;37.53;;;22.00;;
62788;SDS011;66401;42.016;21.454;2023-02-23T04:15:06;36.10;;;22.37;;
62788;SDS011;66401;42.016;21.454;2023-02-23T04:17:37;38.70;;;22.77;;
62788;SDS011;66401;42.016;21.454;2023-02-23T04:20:04;45.13;;;22.93;;
62788;SDS011;66401;42.016;21.454;2023-02-23T04:22:31;39.67;;;21.57;;
62788;SDS011;66401;42.016;21.454;2023-02-23T04:24:56;38.50;;;21.73;;
62788;SDS011;66401;42.016;21.454;2023-02-23T04:27:22;40.47;;;22.37;;
62788;SDS011;66401;42.016;21.454;2023-02-23T04:29:47;38.07;;;22.50;;
62788;SDS011;66401;42.016;21.454;2023-02-23T04:32:14;42.50;;;22.03;;
62788;SDS011;66401;42.016;21.454;2023-02-23T04:34:41;35.90;;;21.17;;
62788;SDS011;66401;42.016;21.454;2023-02-23T04:37:08;40.70;;;22.13;;
62788;SDS011;66401;42.016;21.454;2023-02-23T04:39:34;38.73;;;21.63;;
62788;SDS011;66401;42.016;21.454;2023-02-23T04:41:59;44.07;;;22.50;;
62788;SDS011;66401;42.016;21.454;2023-02-23T04:44:25;41.07;;;21.23;;
62788;SDS011;66401;42.016;21.454;2023-02-23T04:46:51;27.97;;;19.03;;
62788;SDS011;66401;42.016;21.454;2023-02-23T04:49:16;34.77;;;19.27;;
62788;SDS011;66401;42.016;21.454;2023-02-23T04:51:42;38.77;;;19.10;;
62788;SDS011;66401;42.016;21.454;2023-02-23T04:54:07;36.07;;;19.50;;
62788;SDS011;66401;42.016;21.454;2023-02-23T04:56:33;32.23;;;17.80;;
62788;SDS011;66401;42.016;21.454;2023-02-23T04:58:59;29.27;;;16.77;;
62788;SDS011;66401;42.016;21.454;2023-02-23T05:01:24;25.40;;;17.37;;
62788;SDS011;66401;42.016;21.454;2023-02-23T05:03:51;25.23;;;15.67;;
62788;SDS011;66401;42.016;21.454;2023-02-23T05:06:17;24.00;;;15.83;;
62788;SDS011;66401;42.016;21.454;2023-02-23T05:08:43;29.77;;;16.50;;
62788;SDS011;66401;42.016;21.454;2023-02-23T05:11:09;29.80;;;16.60;;
62788;SDS011;66401;42.016;21.454;2023-02-23T05:13:35;27.63;;;16.27;;
62788;SDS011;66401;42.016;21.454;2023-02-23T05:16:01;28.93;;;16.67;;
62788;SDS011;66401;42.016;21.454;2023-02-23T05:18:26;34.37;;;18.27;;
62788;SDS011;66401;42.016;21.454;2023-02-23T05:20:52;35.50;;;18.57;;
62788;SDS011;66401;42.016;21.454;2023-02-23T05:23:25;31.70;;;17.47;;
62788;SDS011;66401;42.016;21.454;2023-02-23T05:25:50;35.43;;;18.50;;
62788;SDS011;66401;42.016;21.454;2023-02-23T05:28:16;32.47;;;18.20;;
62788;SDS011;66401;42.016;21.454;2023-02-23T05:30:41;28.73;;;16.83;;
62788;SDS011;66401;42.016;21.454;2023-02-23T05:33:07;33.20;;;18.07;;
62788;SDS011;66401;42.016;21.454;2023-02-23T05:35:33;28.23;;;16.53;;
62788;SDS011;66401;42.016;21.454;2023-02-23T05:37:59;29.10;;;16.03;;
62788;SDS011;66401;42.016;21.454;2023-02-23T05:40:24;32.30;;;17.33;;
62788;SDS011;66401;42.016;21.454;2023-02-23T05:42:50;28.50;;;18.23;;
62788;SDS011;66401;42.016;21.454;2023-02-23T05:45:15;29.87;;;17.97;;
62788;SDS011;66401;42.016;21.454;2023-02-23T05:47:41;34.80;;;19.83;;
62788;SDS011;66401;42.016;21.454;2023-02-23T05:50:07;34.47;;;19.60;;
62788;SDS011;66401;42.016;21.454;2023-02-23T05:52:40;37.87;;;21.13;;
62788;SDS011;66401;42.016;21.454;2023-02-23T05:55:06;31.17;;;18.93;;
62788;SDS011;66401;42.016;21.454;2023-02-23T05:57:34;26.20;;;16.27;;
62788;SDS011;66401;42.016;21.454;2023-02-23T05:59:59;26.27;;;16.20;;
62788;SDS011;66401;42.016;21.454;2023-02-23T06:02:25;27.67;;;15.60;;
62788;SDS011;66401;42.016;21.454;2023-02-23T06:04:51;29.50;;;17.17;;
62788;SDS011;66401;42.016;21.454;2023-02-23T06:07:16;24.87;;;15.27;;
62788;SDS011;66401;42.016;21.454;2023-02-23T06:09:42;26.47;;;15.20;;
62788;SDS011;66401;42.016;21.454;2023-02-23T06:12:07;26.20;;;15.90;;
62788;SDS011;66401;42.016;21.454;2023-02-23T06:14:33;27.60;;;15.50;;
62788;SDS011;66401;42.016;21.454;2023-02-23T06:16:59;30.90;;;17.57;;
62788;SDS011;66401;42.016;21.454;2023-02-23T06:19:25;31.80;;;18.13;;
62788;SDS011;66401;42.016;21.454;2023-02-23T06:21:50;32.37;;;17.73;;
62788;SDS011;66401;42.016;21.454;2023-02-23T06:24:17;30.23;;;17.77;;
62788;SDS011;66401;42.016;21.454;2023-02-23T06:26:43;33.83;;;18.77;;
62788;SDS011;66401;42.016;21.454;2023-02-23T06:29:09;30.33;;;16.97;;
62788;SDS011;66401;42.016;21.454;2023-02-23T06:31:36;29.73;;;16.17;;
62788;SDS011;66401;42.016;21.454;2023-02-23T06:34:02;32.47;;;18.40;;
62788;SDS011;66401;42.016;21.454;2023-02-23T06:36:28;27.37;;;18.07;;
62788;SDS011;66401;42.016;21.454;2023-02-23T06:38:56;36.93;;;20.90;;
62788;SDS011;66401;42.016;21.454;2023-02-23T06:41:23;35.20;;;19.20;;
62788;SDS011;66401;42.016;21.454;2023-02-23T06:43:49;35.37;;;20.00;;
62788;SDS011;66401;42.016;21.454;2023-02-23T06:46:15;46.57;;;25.20;;
62788;SDS011;66401;42.016;21.454;2023-02-23T06:48:42;48.37;;;27.50;;
62788;SDS011;66401;42.016;21.454;2023-02-23T06:51:07;58.90;;;28.30;;
62788;SDS011;66401;42.016;21.454;2023-02-23T06:53:34;55.93;;;27.67;;
62788;SDS011;66401;42.016;21.454;2023-02-23T06:55:59;53.00;;;27.43;;
62788;SDS011;66401;42.016;21.454;2023-02-23T06:58:25;57.40;;;27.47;;
62788;SDS011;66401;42.016;21.454;2023-02-23T07:00:53;63.07;;;28.67;;
62788;SDS011;66401;42.016;21.454;2023-02-23T07:03:21;56.57;;;28.77;;
62788;SDS011;66401;42.016;21.454;2023-02-23T07:05:47;51.97;;;28.77;;
62788;SDS011;66401;42.016;21.454;2023-02-23T07:08:14;60.60;;;28.17;;
62788;SDS011;66401;42.016;21.454;2023-02-23T07:10:40;50.37;;;24.83;;
62788;SDS011;66401;42.016;21.454;2023-02-23T07:13:06;50.03;;;23.87;;
62788;SDS011;66401;42.016;21.454;2023-02-23T07:15:33;44.37;;;24.10;;
62788;SDS011;66401;42.016;21.454;2023-02-23T07:17:59;42.50;;;24.03;;
62788;SDS011;66401;42.016;21.454;2023-02-23T07:20:25;43.20;;;23.47;;
62788;SDS011;66401;42.016;21.454;2023-02-23T07:22:50;46.70;;;24.10;;
62788;SDS011;66401;42.016;21.454;2023-02-23T07:25:17;41.07;;;23.30;;
62788;SDS011;66401;42.016;21.454;2023-02-23T07:27:43;43.90;;;23.40;;
62788;SDS011;66401;42.016;21.454;2023-02-23T07:30:09;47.87;;;22.77;;
62788;SDS011;66401;42.016;21.454;2023-02-23T07:32:35;42.67;;;23.63;;
62788;SDS011;66401;42.016;21.454;2023-02-23T07:35:02;45.53;;;22.93;;
62788;SDS011;66401;42.016;21.454;2023-02-23T07:37:28;41.93;;;23.63;;
62788;SDS011;66401;42.016;21.454;2023-02-23T07:39:53;39.23;;;21.03;;
62788;SDS011;66401;42.016;21.454;2023-02-23T07:42:19;33.90;;;18.47;;
62788;SDS011;66401;42.016;21.454;2023-02-23T07:44:44;37.43;;;21.10;;
62788;SDS011;66401;42.016;21.454;2023-02-23T07:47:10;42.47;;;24.27;;
62788;SDS011;66401;42.016;21.454;2023-02-23T07:49:35;39.33;;;23.03;;
62788;SDS011;66401;42.016;21.454;2023-02-23T07:52:01;40.80;;;24.00;;
62788;SDS011;66401;42.016;21.454;2023-02-23T07:54:27;39.37;;;22.37;;
62788;SDS011;66401;42.016;21.454;2023-02-23T07:56:52;44.47;;;25.80;;
62788;SDS011;66401;42.016;21.454;2023-02-23T07:59:18;36.43;;;22.53;;
62788;SDS011;66401;42.016;21.454;2023-02-23T08:01:43;38.33;;;23.93;;
62788;SDS011;66401;42.016;21.454;2023-02-23T08:04:09;28.03;;;19.77;;
62788;SDS011;66401;42.016;21.454;2023-02-23T08:06:35;29.97;;;19.87;;
62788;SDS011;66401;42.016;21.454;2023-02-23T08:09:01;28.27;;;19.40;;
62788;SDS011;66401;42.016;21.454;2023-02-23T08:11:28;30.70;;;22.20;;
62788;SDS011;66401;42.016;21.454;2023-02-23T08:13:54;32.73;;;20.23;;
62788;SDS011;66401;42.016;21.454;2023-02-23T08:16:30;30.47;;;21.87;;
62788;SDS011;66401;42.016;21.454;2023-02-23T08:18:57;27.90;;;20.53;;
62788;SDS011;66401;42.016;21.454;2023-02-23T08:21:24;29.63;;;19.87;;
62788;SDS011;66401;42.016;21.454;2023-02-23T08:23:49;27.83;;;19.23;;
62788;SDS011;66401;42.016;21.454;2023-02-23T08:26:15;24.67;;;18.60;;
62788;SDS011;66401;42.016;21.454;2023-02-23T08:28:41;25.23;;;19.00;;
62788;SDS011;66401;42.016;21.454;2023-02-23T08:31:09;26.10;;;18.17;;
62788;SDS011;66401;42.016;21.454;2023-02-23T08:33:38;25.93;;;18.97;;
62788;SDS011;66401;42.016;21.454;2023-02-23T08:36:05;25.63;;;19.40;;
62788;SDS011;66401;42.016;21.454;2023-02-23T08:38:31;25.73;;;19.50;;
62788;SDS011;66401;42.016;21.454;2023-02-23T08:41:00;28.03;;;19.33;;
62788;SDS011;66401;42.016;21.454;2023-02-23T08:43:26;26.40;;;20.17;;
62788;SDS011;66401;42.016;21.454;2023-02-23T08:45:51;30.93;;;22.10;;
62788;SDS011;66401;42.016;21.454;2023-02-23T08:48:17;29.07;;;22.13;;
62788;SDS011;66401;42.016;21.454;2023-02-23T08:50:42;52.23;;;31.47;;
62788;SDS011;66401;42.016;21.454;2023-02-23T08:53:08;51.50;;;34.13;;
62788;SDS011;66401;42.016;21.454;2023-02-23T08:55:36;53.40;;;32.80;;
62788;SDS011;66401;42.016;21.454;2023-02-23T08:58:02;43.90;;;31.07;;
62788;SDS011;66401;42.016;21.454;2023-02-23T09:00:30;48.27;;;32.33;;
62788;SDS011;66401;42.016;21.454;2023-02-23T09:02:55;46.23;;;32.23;;
62788;SDS011;66401;42.016;21.454;2023-02-23T09:05:21;49.73;;;31.67;;
62788;SDS011;66401;42.016;21.454;2023-02-23T09:07:46;51.87;;;32.30;;
62788;SDS011;66401;42.016;21.454;2023-02-23T09:10:14;46.07;;;30.90;;
62788;SDS011;66401;42.016;21.454;2023-02-23T09:12:43;43.43;;;30.43;;
62788;SDS011;66401;42.016;21.454;2023-02-23T09:15:09;46.57;;;28.57;;
62788;SDS011;66401;42.016;21.454;2023-02-23T09:17:35;41.60;;;26.90;;
62788;SDS011;66401;42.016;21.454;2023-02-23T09:20:03;41.33;;;25.30;;
62788;SDS011;66401;42.016;21.454;2023-02-23T09:22:30;44.47;;;25.07;;
62788;SDS011;66401;42.016;21.454;2023-02-23T09:24:55;39.93;;;24.70;;
62788;SDS011;66401;42.016;21.454;2023-02-23T09:27:21;36.30;;;24.17;;
62788;SDS011;66401;42.016;21.454;2023-02-23T09:29:46;35.17;;;23.93;;
62788;SDS011;66401;42.016;21.454;2023-02-23T09:32:12;36.57;;;23.83;;
62788;SDS011;66401;42.016;21.454;2023-02-23T09:34:37;43.67;;;23.80;;
62788;SDS011;66401;42.016;21.454;2023-02-23T09:37:03;35.40;;;22.97;;
62788;SDS011;66401;42.016;21.454;2023-02-23T09:39:29;31.83;;;22.77;;
62788;SDS011;66401;42.016;21.454;2023-02-23T09:50:03;28.67;;;19.27;;
62788;SDS011;66401;42.016;21.454;2023-02-23T09:52:39;30.77;;;20.10;;
62788;SDS011;66401;42.016;21.454;2023-02-23T09:55:11;37.40;;;20.80;;
62788;SDS011;66401;42.016;21.454;2023-02-23T09:57:39;29.67;;;18.77;;
62788;SDS011;66401;42.016;21.454;2023-02-23T10:02:51;25.63;;;17.07;;
62788;SDS011;66401;42.016;21.454;2023-02-23T10:05:38;23.47;;;15.63;;
62788;SDS011;66401;42.016;21.454;2023-02-23T10:08:18;21.50;;;15.60;;
62788;SDS011;66401;42.016;21.454;2023-02-23T10:10:58;21.47;;;15.13;;
62788;SDS011;66401;42.016;21.454;2023-02-23T10:19:02;18.15;;;13.77;;
62788;SDS011;66401;42.016;21.454;2023-02-23T10:21:35;22.20;;;15.57;;
62788;SDS011;66401;42.016;21.454;2023-02-23T10:26:46;26.23;;;15.65;;
62788;SDS011;66401;42.016;21.454;2023-02-23T10:29:30;24.05;;;15.27;;
62788;SDS011;66401;42.016;21.454;2023-02-23T10:32:02;22.05;;;14.82;;
62788;SDS011;66401;42.016;21.454;2023-02-23T10:34:31;19.33;;;13.52;;
62788;SDS011;66401;42.016;21.454;2023-02-23T10:36:59;20.75;;;14.73;;
62788;SDS011;66401;42.016;21.454;2023-02-23T10:39:26;21.55;;;13.88;;
62788;SDS011;66401;42.016;21.454;2023-02-23T10:41:54;18.48;;;14.50;;
62788;SDS011;66401;42.016;21.454;2023-02-23T10:44:23;21.00;;;14.13;;
62788;SDS011;66401;42.016;21.454;2023-02-23T10:46:57;15.63;;;13.23;;
62788;SDS011;66401;42.016;21.454;2023-02-23T10:49:37;13.47;;;12.07;;
62788;SDS011;66401;42.016;21.454;2023-02-23T10:52:07;21.67;;;14.33;;
62788;SDS011;66401;42.016;21.454;2023-02-23T10:54:41;19.45;;;14.30;;
62788;SDS011;66401;42.016;21.454;2023-02-23T10:57:32;19.85;;;14.50;;
62788;SDS011;66401;42.016;21.454;2023-02-23T11:00:21;16.55;;;12.95;;
62788;SDS011;66401;42.016;21.454;2023-02-23T11:02:56;17.70;;;13.27;;
62788;SDS011;66401;42.016;21.454;2023-02-23T11:05:33;14.23;;;12.55;;
62788;SDS011;66401;42.016;21.454;2023-02-23T11:08:19;18.35;;;13.63;;
62788;SDS011;66401;42.016;21.454;2023-02-23T11:13:49;13.70;;;11.40;;
62788;SDS011;66401;42.016;21.454;2023-02-23T11:16:17;12.60;;;10.00;;
62788;SDS011;66401;42.016;21.454;2023-02-23T11:21:22;12.67;;;11.30;;
62788;SDS011;66401;42.016;21.454;2023-02-23T11:26:50;13.43;;;10.97;;
62788;SDS011;66401;42.016;21.454;2023-02-23T11:29:21;19.00;;;11.97;;
62788;SDS011;66401;42.016;21.454;2023-02-23T11:31:59;14.97;;;10.33;;
62788;SDS011;66401;42.016;21.454;2023-02-23T11:34:32;13.53;;;10.80;;
62788;SDS011;66401;42.016;21.454;2023-02-23T11:37:06;15.33;;;10.60;;
62788;SDS011;66401;42.016;21.454;2023-02-23T11:40:02;12.73;;;10.10;;
62788;SDS011;66401;42.016;21.454;2023-02-23T11:45:44;14.03;;;8.93;;
62788;SDS011;66401;42.016;21.454;2023-02-23T11:48:20;13.47;;;9.80;;
62788;SDS011;66401;42.016;21.454;2023-02-23T11:50:51;11.40;;;9.47;;
62788;SDS011;66401;42.016;21.454;2023-02-23T11:53:27;16.20;;;9.77;;
62788;SDS011;66401;42.016;21.454;2023-02-23T11:55:59;12.00;;;9.50;;
62788;SDS011;66401;42.016;21.454;2023-02-23T12:01:33;9.40;;;8.07;;
62788;SDS011;66401;42.016;21.454;2023-02-23T12:04:28;50.37;;;23.80;;
62788;SDS011;66401;42.016;21.454;2023-02-23T12:10:02;9.80;;;7.97;;
62788;SDS011;66401;42.016;21.454;2023-02-23T12:12:39;10.30;;;7.57;;
62788;SDS011;66401;42.016;21.454;2023-02-23T12:15:19;8.83;;;7.67;;
62788;SDS011;66401;42.016;21.454;2023-02-23T12:17:54;7.63;;;6.93;;
62788;SDS011;66401;42.016;21.454;2023-02-23T12:20:26;11.03;;;7.03;;
62788;SDS011;66401;42.016;21.454;2023-02-23T12:23:05;13.07;;;9.30;;
62788;SDS011;66401;42.016;21.454;2023-02-23T12:25:43;11.90;;;7.93;;
62788;SDS011;66401;42.016;21.454;2023-02-23T12:28:19;12.90;;;7.70;;
62788;SDS011;66401;42.016;21.454;2023-02-23T12:30:59;7.03;;;6.13;;
62788;SDS011;66401;42.016;21.454;2023-02-23T12:33:46;8.37;;;7.40;;
62788;SDS011;66401;42.016;21.454;2023-02-23T12:42:01;8.30;;;7.50;;
62788;SDS011;66401;42.016;21.454;2023-02-23T12:44:53;7.63;;;6.93;;
62788;SDS011;66401;42.016;21.454;2023-02-23T12:50:38;7.97;;;7.17;;
62788;SDS011;66401;42.016;21.454;2023-02-23T12:53:16;7.87;;;6.67;;
62788;SDS011;66401;42.016;21.454;2023-02-23T13:13:15;9.13;;;6.80;;
62788;SDS011;66401;42.016;21.454;2023-02-23T13:25:23;14.07;;;7.53;;
62788;SDS011;66401;42.016;21.454;2023-02-23T13:28:07;7.63;;;6.70;;
62788;SDS011;66401;42.016;21.454;2023-02-23T13:30:42;11.53;;;7.37;;
62788;SDS011;66401;42.016;21.454;2023-02-23T13:33:17;9.27;;;7.73;;
62788;SDS011;66401;42.016;21.454;2023-02-23T13:35:48;10.23;;;7.80;;
62788;SDS011;66401;42.016;21.454;2023-02-23T13:41:02;11.40;;;7.70;;
62788;SDS011;66401;42.016;21.454;2023-02-23T13:43:33;12.47;;;7.37;;
62788;SDS011;66401;42.016;21.454;2023-02-23T13:46:23;11.47;;;7.80;;
62788;SDS011;66401;42.016;21.454;2023-02-23T13:49:03;13.30;;;7.40;;
62788;SDS011;66401;42.016;21.454;2023-02-23T13:51:59;9.37;;;7.53;;
62788;SDS011;66401;42.016;21.454;2023-02-23T13:54:34;12.87;;;7.43;;
62788;SDS011;66401;42.016;21.454;2023-02-23T13:57:02;10.73;;;7.37;;
62788;SDS011;66401;42.016;21.454;2023-02-23T13:59:42;11.07;;;7.40;;
62788;SDS011;66401;42.016;21.454;2023-02-23T14:04:47;8.63;;;6.90;;
62788;SDS011;66401;42.016;21.454;2023-02-23T14:07:20;8.40;;;7.57;;
62788;SDS011;66401;42.016;21.454;2023-02-23T14:09:54;9.70;;;6.63;;
62788;SDS011;66401;42.016;21.454;2023-02-23T14:12:34;8.20;;;6.80;;
62788;SDS011;66401;42.016;21.454;2023-02-23T14:15:46;7.87;;;6.80;;
62788;SDS011;66401;42.016;21.454;2023-02-23T14:18:26;8.47;;;6.73;;
62788;SDS011;66401;42.016;21.454;2023-02-23T14:31:02;10.80;;;7.87;;
62788;SDS011;66401;42.016;21.454;2023-02-23T14:41:22;9.40;;;7.23;;
62788;SDS011;66401;42.016;21.454;2023-02-23T14:43:58;9.90;;;7.83;;
62788;SDS011;66401;42.016;21.454;2023-02-23T14:46:31;10.47;;;7.67;;
62788;SDS011;66401;42.016;21.454;2023-02-23T14:49:08;10.87;;;7.80;;
62788;SDS011;66401;42.016;21.454;2023-02-23T14:52:04;8.43;;;6.67;;
62788;SDS011;66401;42.016;21.454;2023-02-23T14:54:31;9.93;;;7.07;;
62788;SDS011;66401;42.016;21.454;2023-02-23T14:56:59;8.70;;;6.80;;
62788;SDS011;66401;42.016;21.454;2023-02-23T14:59:39;8.23;;;6.73;;
62788;SDS011;66401;42.016;21.454;2023-02-23T15:02:16;10.93;;;7.70;;
62788;SDS011;66401;42.016;21.454;2023-02-23T15:04:44;10.23;;;7.10;;
62788;SDS011;66401;42.016;21.454;2023-02-23T15:07:14;10.23;;;7.23;;
62788;SDS011;66401;42.016;21.454;2023-02-23T15:09:50;9.73;;;7.07;;
62788;SDS011;66401;42.016;21.454;2023-02-23T15:12:27;10.67;;;7.03;;
62788;SDS011;66401;42.016;21.454;2023-02-23T15:14:59;8.50;;;7.10;;
62788;SDS011;66401;42.016;21.454;2023-02-23T15:17:28;9.37;;;7.60;;
62788;SDS011;66401;42.016;21.454;2023-02-23T15:19:57;13.80;;;7.50;;
62788;SDS011;66401;42.016;21.454;2023-02-23T15:22:26;10.53;;;7.43;;
62788;SDS011;66401;42.016;21.454;2023-02-23T15:24:56;10.57;;;7.27;;
62788;SDS011;66401;42.016;21.454;2023-02-23T15:27:28;11.57;;;7.43;;
62788;SDS011;66401;42.016;21.454;2023-02-23T15:33:11;10.77;;;8.00;;
62788;SDS011;66401;42.016;21.454;2023-02-23T15:35:48;10.57;;;7.40;;
62788;SDS011;66401;42.016;21.454;2023-02-23T15:38:22;13.43;;;8.07;;
62788;SDS011;66401;42.016;21.454;2023-02-23T15:40:53;11.83;;;7.63;;
62788;SDS011;66401;42.016;21.454;2023-02-23T15:43:23;13.60;;;8.67;;
62788;SDS011;66401;42.016;21.454;2023-02-23T15:45:50;11.80;;;8.87;;
62788;SDS011;66401;42.016;21.454;2023-02-23T15:48:22;10.60;;;8.10;;
62788;SDS011;66401;42.016;21.454;2023-02-23T15:50:54;12.77;;;8.37;;
62788;SDS011;66401;42.016;21.454;2023-02-23T15:58:38;15.00;;;9.13;;
62788;SDS011;66401;42.016;21.454;2023-02-23T16:01:09;15.37;;;8.20;;
62788;SDS011;66401;42.016;21.454;2023-02-23T16:03:38;16.57;;;9.03;;
62788;SDS011;66401;42.016;21.454;2023-02-23T16:09:00;13.87;;;9.23;;
62788;SDS011;66401;42.016;21.454;2023-02-23T16:11:43;26.17;;;14.87;;
62788;SDS011;66401;42.016;21.454;2023-02-23T16:14:12;21.90;;;13.63;;
62788;SDS011;66401;42.016;21.454;2023-02-23T16:16:40;20.27;;;11.80;;
62788;SDS011;66401;42.016;21.454;2023-02-23T16:19:09;15.93;;;9.83;;
62788;SDS011;66401;42.016;21.454;2023-02-23T16:21:39;21.77;;;10.43;;
62788;SDS011;66401;42.016;21.454;2023-02-23T16:24:05;20.10;;;10.30;;
62788;SDS011;66401;42.016;21.454;2023-02-23T16:26:36;22.93;;;10.60;;
62788;SDS011;66401;42.016;21.454;2023-02-23T16:29:08;20.23;;;10.80;;
62788;SDS011;66401;42.016;21.454;2023-02-23T16:31:39;23.37;;;12.23;;
62788;SDS011;66401;42.016;21.454;2023-02-23T16:34:26;22.00;;;13.10;;
62788;SDS011;66401;42.016;21.454;2023-02-23T16:39:46;22.03;;;16.97;;
62788;SDS011;66401;42.016;21.454;2023-02-23T16:42:26;27.10;;;17.30;;
62788;SDS011;66401;42.016;21.454;2023-02-23T16:44:55;23.03;;;16.57;;
62788;SDS011;66401;42.016;21.454;2023-02-23T16:49:47;26.80;;;16.07;;
62788;SDS011;66401;42.016;21.454;2023-02-23T16:52:17;28.50;;;16.30;;
62788;SDS011;66401;42.016;21.454;2023-02-23T16:54:46;22.47;;;13.77;;
62788;SDS011;66401;42.016;21.454;2023-02-23T16:57:19;20.43;;;13.80;;
62788;SDS011;66401;42.016;21.454;2023-02-23T16:59:49;22.53;;;12.47;;
62788;SDS011;66401;42.016;21.454;2023-02-23T17:02:16;16.80;;;11.27;;
62788;SDS011;66401;42.016;21.454;2023-02-23T17:04:47;16.80;;;11.97;;
62788;SDS011;66401;42.016;21.454;2023-02-23T17:07:17;15.30;;;10.60;;
62788;SDS011;66401;42.016;21.454;2023-02-23T17:09:44;16.47;;;10.97;;
62788;SDS011;66401;42.016;21.454;2023-02-23T17:12:12;18.47;;;11.00;;
62788;SDS011;66401;42.016;21.454;2023-02-23T17:14:46;19.13;;;11.87;;